Time;durP1;ratioP1;P1;durP2;ratioP2;P2;SDS_P1;SDS_P2;PMS_P1;PMS_P2;Temp;Humidity;BMP_temperature;BMP_pressure;BME280_temperature;BME280_humidity;BME280_pressure;Samples;Min_cycle;Max_cycle;Signal;HPM_P1;HPM_P2
2023/09/07 00:02:16;;;;;;;2.83;1.67;;;18.30;99.90;;;;;;5061892;28;20390;-82
2023/09/07 00:04:43;;;;;;;2.08;1.10;;;18.10;99.90;;;;;;5062096;28;20039;-82
2023/09/07 00:07:09;;;;;;;2.45;1.25;;;18.90;99.90;;;;;;5080519;28;20413;-82
2023/09/07 00:09:34;;;;;;;4.13;1.45;;;18.10;99.90;;;;;;5061900;28;20016;-82
2023/09/07 00:12:00;;;;;;;2.88;1.23;;;18.10;99.90;;;;;;5061142;28;20078;-82
2023/09/07 00:14:29;;;;;;;11.02;2.25;;;18.80;99.90;;;;;;5061748;28;20367;-82
2023/09/07 00:16:54;;;;;;;4.07;1.70;;;18.10;99.90;;;;;;5079622;28;20029;-82
2023/09/07 00:19:20;;;;;;;2.40;1.30;;;18.30;99.90;;;;;;5061310;28;20035;-82
2023/09/07 00:21:51;;;;;;;4.03;1.55;;;18.00;99.90;;;;;;5060385;28;20482;-82
2023/09/07 00:24:17;;;;;;;2.42;1.60;;;18.00;99.90;;;;;;5077935;28;20431;-82
2023/09/07 00:26:43;;;;;;;3.75;1.38;;;18.00;99.90;;;;;;5078098;28;20020;-82
2023/09/07 00:29:09;;;;;;;4.57;1.35;;;18.20;99.90;;;;;;5060722;28;20074;-82
2023/09/07 00:31:34;;;;;;;1.83;1.00;;;17.90;99.90;;;;;;5077805;28;20021;-82
2023/09/07 00:34:00;;;;;;;4.45;1.65;;;17.90;99.90;;;;;;5059967;28;20035;-82
2023/09/07 00:36:26;;;;;;;2.63;1.15;;;17.90;99.90;;;;;;5059711;28;20025;-82
2023/09/07 00:38:51;;;;;;;3.92;1.52;;;17.80;99.90;;;;;;5061350;28;20028;-82
2023/09/07 00:41:17;;;;;;;4.07;1.10;;;17.80;99.90;;;;;;5063703;28;20025;-82
2023/09/07 00:43:42;;;;;;;3.22;1.30;;;18.60;99.90;;;;;;5063677;28;20070;-82
2023/09/07 00:46:09;;;;;;;1.52;0.85;;;17.70;99.90;;;;;;5063613;28;20032;-82
2023/09/07 00:48:35;;;;;;;5.45;1.08;;;17.70;99.90;;;;;;5062362;28;20052;-82
2023/09/07 00:51:01;;;;;;;2.70;1.45;;;17.70;99.90;;;;;;5080560;28;20490;-82
2023/09/07 00:53:27;;;;;;;3.33;1.70;;;17.70;99.90;;;;;;5062678;28;20028;-82
2023/09/07 00:55:54;;;;;;;3.88;1.65;;;19.10;99.90;;;;;;5063085;28;20098;-81
2023/09/07 00:58:21;;;;;;;2.97;1.60;;;17.60;99.90;;;;;;5062683;28;20374;-82
2023/09/07 01:00:47;;;;;;;1.65;1.08;;;17.60;99.90;;;;;;5081018;28;20031;-82
2023/09/07 01:03:13;;;;;;;2.10;1.20;;;17.40;99.90;;;;;;5062878;28;20424;-82
2023/09/07 01:06:22;;;;;;;2.47;1.48;;;17.60;99.90;;;;;;5062378;28;20120;-82
2023/09/07 01:08:56;;;;;;;2.00;1.45;;;17.50;99.90;;;;;;5025288;28;20044;-82
2023/09/07 01:11:24;;;;;;;2.83;1.27;;;17.50;99.90;;;;;;5062229;28;20092;-82
2023/09/07 01:13:55;;;;;;;2.33;1.23;;;17.50;99.90;;;;;;5062551;28;20512;-82
2023/09/07 01:16:21;;;;;;;2.38;1.00;;;17.50;99.90;;;;;;5062940;28;20385;-82
2023/09/07 01:18:47;;;;;;;2.08;1.40;;;17.50;99.90;;;;;;5062806;28;20378;-82
2023/09/07 01:21:14;;;;;;;2.00;1.10;;;17.40;99.90;;;;;;5061798;28;20548;-82
2023/09/07 01:23:42;;;;;;;1.95;1.30;;;17.40;99.90;;;;;;5062156;28;20111;-82
2023/09/07 01:26:08;;;;;;;2.90;1.33;;;17.30;99.90;;;;;;5061833;28;20080;-82
2023/09/07 01:28:36;;;;;;;2.38;1.65;;;17.20;99.90;;;;;;5062562;28;20036;-82
2023/09/07 01:31:02;;;;;;;5.53;1.92;;;17.20;99.90;;;;;;5079720;28;20366;-82
2023/09/07 01:33:28;;;;;;;3.33;1.70;;;17.30;99.90;;;;;;5062308;28;20024;-82
2023/09/07 01:35:54;;;;;;;2.15;1.50;;;17.40;99.90;;;;;;5080551;28;20044;-82
2023/09/07 01:38:19;;;;;;;1.70;1.30;;;17.20;99.90;;;;;;5062814;28;20378;-82
2023/09/07 01:40:45;;;;;;;3.85;1.70;;;18.10;99.90;;;;;;5062016;28;20123;-82
2023/09/07 01:43:10;;;;;;;6.32;1.60;;;17.20;99.90;;;;;;5061854;28;20050;-82
2023/09/07 01:45:36;;;;;;;2.58;1.40;;;17.20;99.90;;;;;;5062002;28;20021;-82
2023/09/07 01:48:03;;;;;;;2.83;1.40;;;17.30;99.90;;;;;;5062260;28;20390;-82
2023/09/07 01:50:28;;;;;;;3.65;2.00;;;17.20;99.90;;;;;;5060828;28;20366;-83
2023/09/07 01:52:54;;;;;;;3.33;1.75;;;17.50;99.90;;;;;;5062318;28;20063;-82
2023/09/07 01:55:20;;;;;;;4.85;2.10;;;17.20;99.90;;;;;;5062035;28;20578;-82
2023/09/07 01:57:45;;;;;;;8.15;1.90;;;19.70;99.90;;;;;;5062474;28;20025;-82
2023/09/07 02:00:12;;;;;;;3.72;1.70;;;17.20;99.90;;;;;;5062503;28;20023;-82
2023/09/07 02:02:38;;;;;;;3.47;1.77;;;17.20;99.90;;;;;;5061151;28;20029;-82
2023/09/07 02:05:04;;;;;;;3.40;1.92;;;17.80;99.90;;;;;;5061712;28;20020;-82
2023/09/07 02:07:29;;;;;;;2.03;1.40;;;17.10;99.90;;;;;;5060123;28;20434;-82
2023/09/07 02:09:55;;;;;;;2.60;1.38;;;17.10;99.90;;;;;;5078186;28;20060;-82
2023/09/07 02:12:23;;;;;;;4.38;2.25;;;17.00;99.90;;;;;;5062180;28;20031;-82
2023/09/07 02:14:49;;;;;;;4.10;2.13;;;17.00;99.90;;;;;;5062703;28;20387;-82
2023/09/07 02:17:17;;;;;;;4.25;2.28;;;19.40;99.90;;;;;;5062273;28;20047;-82
2023/09/07 02:19:44;;;;;;;3.38;2.25;;;17.00;99.90;;;;;;5080950;28;20016;-82
2023/09/07 02:22:09;;;;;;;3.50;1.95;;;16.90;99.90;;;;;;5063504;28;20020;-82
2023/09/07 02:24:35;;;;;;;3.70;2.00;;;16.90;99.90;;;;;;5081125;28;20055;-82
2023/09/07 02:27:01;;;;;;;4.10;2.15;;;17.10;99.90;;;;;;5063825;28;20025;-82
2023/09/07 02:29:26;;;;;;;8.55;2.15;;;17.10;99.90;;;;;;5064886;28;20098;-82
2023/09/07 02:31:52;;;;;;;5.15;2.55;;;16.80;99.90;;;;;;5063505;28;20523;-82
2023/09/07 02:34:18;;;;;;;4.63;2.13;;;16.80;99.90;;;;;;5064727;28;20055;-82
2023/09/07 02:36:44;;;;;;;3.70;2.20;;;16.70;99.90;;;;;;5065678;22;20037;-71
2023/09/07 02:39:11;;;;;;;4.15;2.42;;;16.80;99.90;;;;;;5055973;28;20025;-71
2023/09/07 02:41:37;;;;;;;3.40;1.60;;;16.80;99.90;;;;;;5073908;28;20024;-71
2023/09/07 02:44:03;;;;;;;4.00;2.20;;;16.70;99.90;;;;;;5073953;28;20066;-71
2023/09/07 02:46:28;;;;;;;6.72;2.22;;;16.60;99.90;;;;;;5055870;28;20028;-71
2023/09/07 02:48:57;;;;;;;3.88;1.88;;;16.50;99.90;;;;;;5073772;28;20067;-71
2023/09/07 02:51:26;;;;;;;3.20;1.77;;;16.40;99.90;;;;;;5074196;28;20038;-72
2023/09/07 02:53:51;;;;;;;;;;;16.50;99.90;;;;;;5074040;28;20506;-71
2023/09/07 02:56:17;;;;;;;3.05;1.60;;;16.40;99.90;;;;;;5073654;28;19913;-71
2023/09/07 02:58:43;;;;;;;2.85;1.83;;;16.40;99.90;;;;;;5073608;28;20142;-70
2023/09/07 03:01:09;;;;;;;4.15;1.98;;;16.40;99.90;;;;;;5073469;28;20021;-70
2023/09/07 03:03:35;;;;;;;3.08;1.60;;;16.40;99.90;;;;;;5073358;28;20360;-70
2023/09/07 03:06:12;;;;;;;7.75;1.73;;;16.40;99.90;;;;;;5073391;28;20031;-71
2023/09/07 03:08:39;;;;;;;3.65;1.58;;;16.30;99.90;;;;;;5073462;28;20029;-71
2023/09/07 03:11:05;;;;;;;2.47;2.13;;;16.30;99.90;;;;;;5073487;28;20111;-70
2023/09/07 03:13:31;;;;;;;3.70;1.83;;;16.40;99.90;;;;;;5073348;28;20032;-71
2023/09/07 03:15:57;;;;;;;4.22;2.30;;;16.40;99.90;;;;;;5073783;28;20425;-71
2023/09/07 03:18:23;;;;;;;5.57;2.47;;;16.40;99.90;;;;;;5055361;28;20123;-71
2023/09/07 03:20:50;;;;;;;5.07;2.40;;;16.30;99.90;;;;;;5073871;28;20025;-71
2023/09/07 03:23:16;;;;;;;5.55;2.58;;;16.30;99.90;;;;;;5055304;28;20024;-70
2023/09/07 03:25:41;;;;;;;4.45;2.63;;;16.30;99.90;;;;;;5073134;28;20024;-71
2023/09/07 03:28:07;;;;;;;3.83;2.03;;;16.30;99.90;;;;;;5073426;28;20024;-70
2023/09/07 03:30:33;;;;;;;3.80;2.22;;;16.30;99.90;;;;;;5055212;28;20055;-71
2023/09/07 03:32:59;;;;;;;3.28;2.22;;;16.20;99.90;;;;;;5073201;28;20028;-71
2023/09/07 03:35:24;;;;;;;5.07;2.80;;;16.30;99.90;;;;;;5073282;28;20028;-71
2023/09/07 03:37:50;;;;;;;5.38;2.63;;;16.30;99.90;;;;;;5073165;28;20025;-71
2023/09/07 03:40:15;;;;;;;4.93;2.90;;;16.30;99.90;;;;;;5055157;28;20108;-71
2023/09/07 03:42:42;;;;;;;4.75;3.13;;;16.30;99.90;;;;;;5073081;28;20502;-71
2023/09/07 03:45:08;;;;;;;7.15;3.22;;;16.40;99.90;;;;;;5072958;28;20020;-70
2023/09/07 03:47:33;;;;;;;6.03;3.05;;;16.40;99.90;;;;;;5072956;28;20066;-71
2023/09/07 03:50:00;;;;;;;6.35;3.05;;;16.40;99.90;;;;;;5073069;28;20029;-71
2023/09/07 03:52:26;;;;;;;4.22;2.95;;;16.30;99.90;;;;;;5073060;28;20089;-71
2023/09/07 03:54:55;;;;;;;3.63;2.50;;;16.30;99.90;;;;;;5072898;28;20028;-71
2023/09/07 03:57:20;;;;;;;;;;;16.30;99.90;;;;;;5073884;28;20372;-71
2023/09/07 03:59:47;;;;;;;4.75;2.55;;;16.30;99.90;;;;;;5073470;28;19909;-71
2023/09/07 04:02:12;;;;;;;10.82;2.92;;;16.30;99.90;;;;;;5054856;28;20023;-71
2023/09/07 04:04:38;;;;;;;7.43;3.35;;;16.20;99.90;;;;;;5072798;28;20024;-71
2023/09/07 04:07:04;;;;;;;5.28;2.90;;;16.20;99.90;;;;;;5072739;28;20067;-71
2023/09/07 04:09:29;;;;;;;3.67;2.53;;;16.20;99.90;;;;;;5072838;28;20046;-71
2023/09/07 04:11:55;;;;;;;5.03;2.58;;;16.20;99.90;;;;;;5054821;28;20066;-71
2023/09/07 04:14:21;;;;;;;4.32;2.50;;;16.20;99.90;;;;;;5074951;28;20025;-71
2023/09/07 04:16:46;;;;;;;6.13;2.90;;;16.10;99.90;;;;;;5058618;28;20078;-71
2023/09/07 04:19:12;;;;;;;5.28;3.15;;;16.20;99.90;;;;;;5077186;28;20475;-70
2023/09/07 04:21:38;;;;;;;5.82;2.90;;;16.10;99.90;;;;;;5076575;28;20403;-71
2023/09/07 04:24:04;;;;;;;4.60;3.05;;;16.10;99.90;;;;;;5058504;28;20029;-71
2023/09/07 04:26:30;;;;;;;5.03;2.70;;;16.10;99.90;;;;;;5076557;28;20035;-71
2023/09/07 04:28:55;;;;;;;4.25;3.03;;;16.10;99.90;;;;;;5058449;28;20126;-70
2023/09/07 04:31:21;;;;;;;4.22;3.08;;;16.10;99.90;;;;;;5076311;28;20443;-71
2023/09/07 04:33:47;;;;;;;3.47;3.17;;;16.10;99.90;;;;;;5076321;28;20028;-71
2023/09/07 04:36:14;;;;;;;4.82;2.70;;;16.10;99.90;;;;;;5075955;28;20473;-70
2023/09/07 04:38:40;;;;;;;5.60;3.15;;;16.00;99.90;;;;;;5058367;28;20499;-71
2023/09/07 04:41:10;;;;;;;7.47;3.20;;;16.00;99.90;;;;;;5076119;28;20048;-71
2023/09/07 04:43:45;;;;;;;6.10;3.05;;;16.00;99.90;;;;;;5076048;28;20032;-71
2023/09/07 04:46:12;;;;;;;5.05;2.70;;;16.00;99.90;;;;;;5076060;28;20025;-71
2023/09/07 04:48:38;;;;;;;3.72;2.38;;;16.00;99.90;;;;;;5058129;28;20069;-71
2023/09/07 04:51:06;;;;;;;4.75;3.13;;;15.90;99.90;;;;;;5076120;28;20028;-71
2023/09/07 04:53:34;;;;;;;8.35;3.38;;;15.90;99.90;;;;;;5075968;28;20161;-72
2023/09/07 04:56:01;;;;;;;5.18;2.78;;;15.90;99.90;;;;;;5057895;28;20077;-71
2023/09/07 04:58:27;;;;;;;3.38;2.25;;;15.90;99.90;;;;;;5075814;28;20025;-71
2023/09/07 05:00:53;;;;;;;6.03;2.78;;;15.80;99.90;;;;;;5075832;28;20043;-71
2023/09/07 05:03:19;;;;;;;6.20;3.08;;;15.90;99.90;;;;;;5075727;28;20028;-71
2023/09/07 05:05:45;;;;;;;3.65;2.38;;;15.90;99.90;;;;;;5057658;28;20055;-71
2023/09/07 05:08:10;;;;;;;4.43;2.75;;;15.80;99.90;;;;;;5057817;28;20047;-71
2023/09/07 05:10:38;;;;;;;4.32;3.08;;;15.80;99.90;;;;;;5075635;28;20052;-71
2023/09/07 05:13:03;;;;;;;4.10;2.70;;;15.80;99.90;;;;;;5057608;28;20028;-71
2023/09/07 05:15:29;;;;;;;7.35;3.45;;;15.80;99.90;;;;;;5075628;28;20021;-71
2023/09/07 05:17:55;;;;;;;5.28;2.88;;;15.80;99.90;;;;;;5075497;28;20479;-71
2023/09/07 05:20:21;;;;;;;5.10;2.67;;;15.80;99.90;;;;;;5057663;28;20098;-71
2023/09/07 05:22:47;;;;;;;5.03;2.97;;;15.80;99.90;;;;;;5075469;28;20482;-72
2023/09/07 05:25:13;;;;;;;4.88;2.63;;;15.80;99.90;;;;;;5074261;28;20020;-72
2023/09/07 05:27:39;;;;;;;6.45;2.88;;;15.90;99.90;;;;;;5075419;28;20395;-72
2023/09/07 05:30:06;;;;;;;5.45;3.45;;;16.30;99.90;;;;;;5057459;28;20174;-72
2023/09/07 05:32:31;;;;;;;4.65;2.72;;;16.50;99.90;;;;;;5057485;28;20032;-72
2023/09/07 05:34:57;;;;;;;3.55;2.60;;;16.80;99.90;;;;;;5057449;28;20388;-74
2023/09/07 05:37:22;;;;;;;4.43;2.20;;;16.90;99.90;;;;;;5057132;28;20392;-72
2023/09/07 05:39:48;;;;;;;10.73;2.95;;;17.10;99.90;;;;;;5075104;28;20440;-72
2023/09/07 05:42:14;;;;;;;6.63;3.35;;;17.10;99.90;;;;;;5075155;28;20069;-72
2023/09/07 05:44:40;;;;;;;3.60;2.45;;;17.30;99.90;;;;;;5057191;28;20419;-72
2023/09/07 05:47:05;;;;;;;7.05;2.85;;;17.30;99.90;;;;;;5057180;28;20035;-72
2023/09/07 05:49:31;;;;;;;6.15;2.92;;;17.40;99.90;;;;;;5057148;28;20024;-73
2023/09/07 05:51:57;;;;;;;4.95;2.50;;;17.50;99.90;;;;;;5075086;28;20029;-73
2023/09/07 05:54:23;;;;;;;6.00;3.13;;;17.60;99.90;;;;;;5056950;28;20021;-73
2023/09/07 05:56:48;;;;;;;3.83;2.75;;;17.70;99.90;;;;;;5074653;28;20079;-73
2023/09/07 05:59:14;;;;;;;3.70;2.70;;;17.80;99.90;;;;;;5075075;28;20024;-73
2023/09/07 06:01:40;;;;;;;5.07;3.03;;;17.60;99.90;;;;;;5056955;28;20030;-73
2023/09/07 06:04:06;;;;;;;4.28;2.83;;;17.80;99.90;;;;;;5056947;28;20016;-73
2023/09/07 06:06:32;;;;;;;10.13;3.22;;;18.00;99.90;;;;;;5074675;28;20503;-73
2023/09/07 06:09:00;;;;;;;4.57;2.75;;;18.10;99.90;;;;;;5074519;28;20031;-73
2023/09/07 06:11:25;;;;;;;8.48;2.72;;;18.20;99.90;;;;;;5074544;28;20082;-73
2023/09/07 06:13:51;;;;;;;4.70;3.20;;;18.40;99.90;;;;;;5074397;28;20429;-73
2023/09/07 06:16:17;;;;;;;4.28;2.80;;;18.30;99.90;;;;;;5073464;28;20404;-73
2023/09/07 06:18:43;;;;;;;4.63;2.72;;;18.50;99.90;;;;;;5072760;28;20024;-73
2023/09/07 06:21:09;;;;;;;4.55;2.60;;;18.60;99.90;;;;;;5072280;28;20115;-73
2023/09/07 06:23:35;;;;;;;6.43;3.20;;;18.70;99.90;;;;;;5056214;28;20067;-73
2023/09/07 06:26:00;;;;;;;6.95;2.65;;;18.80;99.90;;;;;;5074192;28;20432;-73
2023/09/07 06:28:27;;;;;;;6.75;2.92;;;18.90;99.90;;;;;;5074171;28;20151;-73
2023/09/07 06:30:52;;;;;;;7.43;2.33;;;19.10;99.90;;;;;;5074224;28;20025;-73
2023/09/07 06:33:18;;;;;;;4.82;3.08;;;19.30;99.90;;;;;;5056158;28;20504;-73
2023/09/07 06:35:43;;;;;;;4.45;2.35;;;19.30;99.90;;;;;;5056310;28;20044;-73
2023/09/07 06:38:09;;;;;;;5.38;2.20;;;19.40;99.90;;;;;;5056936;28;20097;-73
2023/09/07 06:40:35;;;;;;;4.55;2.40;;;19.50;99.90;;;;;;5074115;28;20020;-73
2023/09/07 06:43:05;;;;;;;3.70;2.60;;;19.70;99.90;;;;;;5073908;28;20101;-73
2023/09/07 06:45:34;;;;;;;4.57;2.67;;;19.80;99.90;;;;;;5074222;28;20092;-73
2023/09/07 06:48:00;;;;;;;4.15;2.20;;;19.90;99.90;;;;;;5073922;28;20055;-73
2023/09/07 06:50:25;;;;;;;6.63;2.60;;;20.10;99.90;;;;;;5055929;28;20050;-73
2023/09/07 06:52:51;;;;;;;2.33;1.75;;;20.20;99.90;;;;;;5073854;28;20021;-73
2023/09/07 06:55:16;;;;;;;7.25;2.80;;;20.30;99.90;;;;;;5074169;28;20048;-73
2023/09/07 06:57:42;;;;;;;3.28;1.80;;;20.30;99.90;;;;;;5055592;28;20023;-73
2023/09/07 07:00:08;;;;;;;4.25;2.17;;;20.40;99.90;;;;;;5073699;28;20028;-73
2023/09/07 07:02:34;;;;;;;4.78;2.15;;;20.50;99.90;;;;;;5055649;28;20496;-73
2023/09/07 07:05:00;;;;;;;3.95;1.88;;;20.70;99.90;;;;;;5055883;28;20055;-73
2023/09/07 07:07:25;;;;;;;3.10;2.00;;;20.80;99.90;;;;;;5073736;28;20039;-73
2023/09/07 07:09:52;;;;;;;3.20;1.38;;;20.90;99.90;;;;;;5073717;28;20031;-73
2023/09/07 07:12:18;;;;;;;4.30;1.58;;;21.00;99.90;;;;;;5073510;28;20107;-73
2023/09/07 07:14:44;;;;;;;4.35;1.50;;;21.10;99.90;;;;;;5055454;28;20027;-73
2023/09/07 07:17:10;;;;;;;3.47;1.48;;;21.20;99.90;;;;;;5073993;28;20384;-73
2023/09/07 07:19:35;;;;;;;1.75;1.13;;;21.30;99.90;;;;;;5073472;28;20017;-73
2023/09/07 07:22:01;;;;;;;3.28;1.48;;;21.40;99.90;;;;;;5073958;28;20025;-73
2023/09/07 07:24:26;;;;;;;1.42;0.90;;;21.50;99.90;;;;;;5073396;28;20025;-73
2023/09/07 07:26:52;;;;;;;2.50;1.15;;;21.70;99.90;;;;;;5073289;28;20024;-73
2023/09/07 07:29:18;;;;;;;1.52;0.88;;;21.80;99.90;;;;;;5073235;28;20024;-73
2023/09/07 07:31:43;;;;;;;1.70;0.82;;;21.90;99.90;;;;;;5073265;28;20032;-73
2023/09/07 07:34:09;;;;;;;1.75;1.05;;;22.00;99.90;;;;;;5073235;28;20028;-73
2023/09/07 07:36:35;;;;;;;3.00;1.70;;;22.20;99.90;;;;;;5055155;28;20031;-73
2023/09/07 07:39:03;;;;;;;7.20;1.20;;;22.30;99.90;;;;;;5055262;28;20017;-73
2023/09/07 07:41:28;;;;;;;1.83;0.82;;;22.40;99.90;;;;;;5073235;28;20044;-73
2023/09/07 07:43:54;;;;;;;2.38;0.93;;;22.50;99.90;;;;;;5073285;28;20059;-73
2023/09/07 07:46:20;;;;;;;2.33;0.70;;;22.60;99.90;;;;;;5073215;28;20029;-73
2023/09/07 07:48:45;;;;;;;3.35;1.05;;;22.70;99.90;;;;;;5074423;28;20020;-73
2023/09/07 07:51:11;;;;;;;3.50;1.27;;;22.80;99.90;;;;;;5059412;28;20025;-73
2023/09/07 07:53:36;;;;;;;2.53;0.38;;;22.90;99.90;;;;;;5059215;28;20449;-73
2023/09/07 07:56:03;;;;;;;3.17;0.60;;;23.00;99.90;;;;;;5077090;28;20047;-73
2023/09/07 07:58:28;;;;;;;3.80;0.50;;;23.20;99.90;;;;;;5077182;28;20024;-73
2023/09/07 08:00:57;;;;;;;3.35;1.10;;;23.20;99.90;;;;;;5077065;28;20029;-72
2023/09/07 08:03:23;;;;;;;1.30;0.47;;;23.30;99.90;;;;;;5059153;28;20023;-73
2023/09/07 08:05:49;;;;;;;1.70;0.45;;;23.40;99.90;;;;;;5077077;28;20519;-73
2023/09/07 08:08:14;;;;;;;2.17;0.90;;;23.50;99.90;;;;;;5077105;28;20017;-73
2023/09/07 08:10:41;;;;;;;1.65;0.75;;;23.60;99.90;;;;;;5059030;28;20042;-73
2023/09/07 08:13:07;;;;;;;3.47;0.50;;;23.60;99.90;;;;;;5076959;28;20130;-73
2023/09/07 08:15:33;;;;;;;1.23;0.60;;;23.80;99.90;;;;;;5076790;28;20484;-73
2023/09/07 08:18:00;;;;;;;2.55;0.57;;;23.80;99.90;;;;;;5076925;28;20079;-73
2023/09/07 08:20:26;;;;;;;3.10;0.95;;;23.90;99.90;;;;;;5076786;28;20028;-73
2023/09/07 08:22:52;;;;;;;1.33;0.77;;;24.00;99.90;;;;;;5076595;28;20024;-72
2023/09/07 08:25:18;;;;;;;1.52;0.35;;;24.10;99.90;;;;;;5058640;28;20020;-72
2023/09/07 08:27:44;;;;;;;2.05;0.65;;;24.20;99.90;;;;;;5077092;28;20498;-72
2023/09/07 08:30:18;;;;;;;1.08;0.55;;;24.30;99.90;;;;;;5058421;28;20020;-72
2023/09/07 08:32:45;;;;;;;3.05;0.80;;;24.40;99.90;;;;;;5058587;28;20119;-72
2023/09/07 08:35:15;;;;;;;3.53;0.10;;;24.50;99.90;;;;;;5058351;28;20021;-72
2023/09/07 08:37:43;;;;;;;1.50;0.35;;;24.60;99.90;;;;;;5076225;28;20032;-72
2023/09/07 08:40:11;;;;;;;1.30;0.32;;;24.70;99.90;;;;;;5058403;28;20070;-72
2023/09/07 08:42:37;;;;;;;1.70;0.40;;;24.80;99.90;;;;;;5058406;28;20021;-72
2023/09/07 08:45:06;;;;;;;1.60;0.32;;;25.00;99.90;;;;;;5058193;28;20067;-72
2023/09/07 08:47:35;;;;;;;3.35;0.50;;;25.00;99.90;;;;;;5058325;28;20024;-72
2023/09/07 08:50:02;;;;;;;7.15;0.50;;;25.10;99.90;;;;;;5076149;28;20016;-72
2023/09/07 08:52:28;;;;;;;1.83;0.70;;;25.20;99.90;;;;;;5076186;28;20029;-71
2023/09/07 08:54:55;;;;;;;2.95;0.45;;;25.40;99.90;;;;;;5076494;28;20387;-72
2023/09/07 08:57:21;;;;;;;2.20;0.50;;;25.40;99.90;;;;;;5075924;28;20035;-72
2023/09/07 08:59:48;;;;;;;3.15;0.45;;;25.50;99.90;;;;;;5075867;28;20021;-72
2023/09/07 09:02:13;;;;;;;0.85;0.30;;;25.60;99.90;;;;;;5076444;28;20028;-72
2023/09/07 09:04:39;;;;;;;1.77;0.60;;;25.70;99.90;;;;;;5075934;28;20017;-72
2023/09/07 09:07:05;;;;;;;0.70;0.28;;;25.80;99.90;;;;;;5075796;28;20093;-74
2023/09/07 09:09:30;;;;;;;2.40;0.28;;;25.90;99.90;;;;;;5058075;28;20020;-74
2023/09/07 09:12:12;;;;;;;1.48;0.40;;;26.00;99.90;;;;;;5057904;28;20021;-74
2023/09/07 09:14:44;;;;;;;1.40;0.43;;;26.10;99.90;;;;;;5075650;28;20063;-74
2023/09/07 09:17:14;;;;;;;0.60;0.20;;;26.20;99.90;;;;;;5076076;28;20017;-74
2023/09/07 09:19:41;;;;;;;0.73;0.30;;;26.30;99.90;;;;;;5075648;28;20423;-74
2023/09/07 09:22:07;;;;;;;1.00;0.40;;;26.40;99.90;;;;;;5075524;28;20017;-74
2023/09/07 09:24:36;;;;;;;1.85;0.32;;;26.50;99.90;;;;;;5057569;28;20036;-74
2023/09/07 09:27:02;;;;;;;2.78;0.40;;;26.60;99.90;;;;;;5075303;28;20413;-74
2023/09/07 09:29:28;;;;;;;0.63;0.45;;;26.70;99.90;;;;;;5075443;28;20384;-74
2023/09/07 09:31:54;;;;;;;1.65;0.30;;;26.80;99.90;;;;;;5076007;28;20035;-74
2023/09/07 09:34:20;;;;;;;4.30;0.63;;;26.90;99.90;;;;;;5075278;28;20032;-74
2023/09/07 09:36:46;;;;;;;0.50;0.20;;;27.00;99.90;;;;;;5057118;28;20039;-74
2023/09/07 09:39:22;;;;;;;1.38;0.20;;;27.00;99.90;;;;;;5075238;28;20391;-74
2023/09/07 09:41:48;;;;;;;0.82;0.10;;;27.20;99.90;;;;;;5075182;28;20040;-74
2023/09/07 09:44:16;;;;;;;1.17;0.57;;;27.20;99.90;;;;;;5075111;28;20024;-74
2023/09/07 09:46:43;;;;;;;1.23;0.63;;;27.30;99.90;;;;;;5057112;28;20123;-74
2023/09/07 09:49:11;;;;;;;3.10;0.45;;;27.40;99.90;;;;;;5056988;28;20020;-74
2023/09/07 09:51:38;;;;;;;1.63;0.20;;;27.50;99.90;;;;;;5074796;28;20033;-74
2023/09/07 09:54:06;;;;;;;0.77;0.67;;;27.60;99.90;;;;;;5074869;28;20422;-74
2023/09/07 09:56:34;;;;;;;1.48;0.20;;;27.70;99.90;;;;;;5056883;28;20063;-72
2023/09/07 09:58:59;;;;;;;0.57;0.20;;;27.80;99.80;;;;;;5074801;28;20471;-72
2023/09/07 10:01:25;;;;;;;1.60;0.47;;;27.90;98.60;;;;;;5056991;28;20048;-72
2023/09/07 10:03:53;;;;;;;2.40;0.30;;;27.90;98.10;;;;;;5074833;28;20020;-72
2023/09/07 10:06:23;;;;;;;1.13;0.30;;;27.90;97.80;;;;;;5075240;28;20467;-72
2023/09/07 10:08:59;;;;;;;4.28;0.55;;;28.00;97.70;;;;;;5074647;28;20368;-72
2023/09/07 10:11:33;;;;;;;0.98;0.35;;;28.00;98.00;;;;;;5073986;28;20036;-72
2023/09/07 10:14:00;;;;;;;3.45;0.20;;;28.10;97.80;;;;;;5074453;28;20028;-74
2023/09/07 10:16:27;;;;;;;6.20;0.28;;;28.10;97.20;;;;;;5074386;28;20163;-74
2023/09/07 10:18:52;;;;;;;1.02;0.32;;;28.20;96.90;;;;;;5074465;28;20023;-73
2023/09/07 10:21:18;;;;;;;1.95;0.80;;;28.20;96.00;;;;;;5074546;28;20104;-73
2023/09/07 10:23:45;;;;;;;2.72;0.15;;;28.30;96.10;;;;;;5074310;28;20080;-73
2023/09/07 10:26:16;;;;;;;1.90;0.45;;;28.40;96.10;;;;;;5056376;28;20035;-73
2023/09/07 10:28:45;;;;;;;2.20;0.40;;;28.40;95.90;;;;;;5074333;28;20492;-73
2023/09/07 10:31:19;;;;;;;2.00;0.52;;;28.50;96.10;;;;;;5074144;28;20029;-73
2023/09/07 10:33:46;;;;;;;2.08;0.13;;;28.60;96.50;;;;;;5055857;28;20032;-73
2023/09/07 10:36:26;;;;;;;1.02;0.15;;;28.80;96.60;;;;;;5073607;28;20487;-76
2023/09/07 10:38:54;;;;;;;1.27;0.15;;;29.00;95.70;;;;;;5074611;28;20021;-72
2023/09/07 10:41:20;;;;;;;1.80;0.32;;;29.10;95.60;;;;;;5073877;28;20021;-72
2023/09/07 10:43:54;;;;;;;0.75;0.20;;;29.20;95.50;;;;;;5056778;28;20371;-72
2023/09/07 10:46:23;;;;;;;0.60;0.20;;;29.30;95.10;;;;;;5073865;28;20024;-73
2023/09/07 10:48:52;;;;;;;1.77;0.40;;;29.40;94.40;;;;;;5073747;28;20028;-72
2023/09/07 10:51:19;;;;;;;4.60;0.20;;;29.60;94.20;;;;;;5074074;28;20068;-72
2023/09/07 10:53:45;;;;;;;4.00;0.43;;;29.70;93.70;;;;;;5055830;28;20078;-72
2023/09/07 10:56:11;;;;;;;0.32;0.20;;;29.90;93.40;;;;;;5055671;28;20033;-72
2023/09/07 10:58:41;;;;;;;1.75;0.20;;;30.00;92.80;;;;;;5073633;28;20013;-72
2023/09/07 11:01:08;;;;;;;1.38;0.10;;;30.10;92.90;;;;;;5073788;28;20527;-72
2023/09/07 11:03:39;;;;;;;3.47;0.20;;;30.30;92.50;;;;;;5073669;28;20384;-72
2023/09/07 11:06:09;;;;;;;5.47;0.20;;;30.40;92.00;;;;;;5073779;28;20024;-72
2023/09/07 11:08:34;;;;;;;7.78;0.30;;;30.50;91.90;;;;;;5055619;28;20021;-72
2023/09/07 11:11:02;;;;;;;2.60;0.57;;;30.60;91.40;;;;;;5074062;28;20107;-72
2023/09/07 11:13:28;;;;;;;2.30;0.10;;;30.70;91.20;;;;;;5055598;28;20498;-72
2023/09/07 11:15:58;;;;;;;0.90;0.20;;;30.80;90.50;;;;;;5055510;28;20062;-72
2023/09/07 11:18:24;;;;;;;0.50;0.13;;;30.90;90.30;;;;;;5073401;28;20040;-72
2023/09/07 11:20:51;;;;;;;0.40;0.40;;;30.90;90.50;;;;;;5055439;28;20384;-72
2023/09/07 11:23:20;;;;;;;4.53;0.30;;;31.00;88.90;;;;;;5072984;28;20017;-72
2023/09/07 11:25:50;;;;;;;1.05;0.30;;;31.00;88.60;;;;;;5055151;28;20501;-72
2023/09/07 11:28:18;;;;;;;2.17;0.20;;;30.70;88.30;;;;;;5073213;28;20028;-72
2023/09/07 11:30:54;;;;;;;0.43;0.28;;;31.20;86.30;;;;;;5073358;28;20019;-72
2023/09/07 11:33:24;;;;;;;0.75;0.25;;;31.20;85.40;;;;;;5073268;28;20020;-72
2023/09/07 11:35:51;;;;;;;1.23;0.63;;;31.30;83.80;;;;;;5072719;28;20499;-72
2023/09/07 11:38:17;;;;;;;0.35;0.10;;;31.30;83.00;;;;;;5073244;28;20051;-72
2023/09/07 11:40:44;;;;;;;1.20;0.15;;;31.40;81.70;;;;;;5073190;28;20017;-72
2023/09/07 11:43:19;;;;;;;0.82;0.17;;;31.40;81.80;;;;;;5073186;28;20032;-72
2023/09/07 11:45:46;;;;;;;0.40;0.30;;;31.50;79.20;;;;;;5073392;28;20027;-72
2023/09/07 11:48:11;;;;;;;0.45;0.15;;;31.50;80.50;;;;;;5073834;28;20020;-72
2023/09/07 11:50:38;;;;;;;2.30;0.20;;;31.50;78.70;;;;;;5055352;28;20012;-72
2023/09/07 11:53:07;;;;;;;1.02;0.30;;;31.50;79.80;;;;;;5055512;28;20142;-72
2023/09/07 11:55:33;;;;;;;0.75;0.30;;;31.70;79.10;;;;;;5073217;28;20036;-72
2023/09/07 11:58:00;;;;;;;2.53;0.10;;;31.80;78.70;;;;;;5073742;28;20016;-72
2023/09/07 12:00:25;;;;;;;1.17;0.22;;;32.00;77.10;;;;;;5055356;28;20099;-72
2023/09/07 12:02:51;;;;;;;0.52;0.20;;;32.00;75.80;;;;;;5073838;28;20096;-72
2023/09/07 12:05:19;;;;;;;0.57;0.20;;;32.10;77.00;;;;;;5073727;28;20024;-72
2023/09/07 12:07:44;;;;;;;2.15;0.40;;;32.20;76.90;;;;;;5073984;28;20032;-72
2023/09/07 12:10:10;;;;;;;0.93;0.75;;;32.30;77.00;;;;;;5073333;28;20037;-72
2023/09/07 12:12:43;;;;;;;4.82;0.30;;;32.50;75.30;;;;;;5073217;28;20443;-72
2023/09/07 12:15:11;;;;;;;1.75;0.10;;;32.50;76.80;;;;;;5073166;28;20025;-72
2023/09/07 12:17:37;;;;;;;2.17;0.22;;;32.50;76.50;;;;;;5073232;28;20021;-72
2023/09/07 12:20:05;;;;;;;3.30;0.50;;;32.80;75.80;;;;;;5073104;28;20501;-72
2023/09/07 12:22:30;;;;;;;2.20;0.22;;;32.90;74.60;;;;;;5073586;28;20016;-72
2023/09/07 12:24:56;;;;;;;1.42;0.20;;;32.90;75.30;;;;;;5073091;28;20498;-72
2023/09/07 12:27:22;;;;;;;1.20;0.10;;;33.00;73.70;;;;;;5054962;28;20039;-72
2023/09/07 12:29:48;;;;;;;1.80;0.40;;;33.20;75.00;;;;;;5055028;28;20071;-72
2023/09/07 12:32:14;;;;;;;0.57;0.20;;;33.30;73.90;;;;;;5055101;28;20028;-72
2023/09/07 12:34:39;;;;;;;1.42;0.10;;;33.50;74.50;;;;;;5074362;28;20454;-72
2023/09/07 12:37:06;;;;;;;0.68;0.28;;;33.60;73.40;;;;;;5076606;28;20039;-72
2023/09/07 12:39:35;;;;;;;5.95;0.32;;;33.80;72.70;;;;;;5058706;28;20374;-72
2023/09/07 12:42:01;;;;;;;1.23;0.25;;;33.90;72.40;;;;;;5076807;28;20074;-72
2023/09/07 12:44:27;;;;;;;3.13;0.85;;;34.10;71.90;;;;;;5076720;28;20100;-72
2023/09/07 12:46:52;;;;;;;1.10;0.15;;;34.30;73.30;;;;;;5076945;28;20107;-72